JLY1087 SBBR-SBCG
Flight info
| Callsign | JLY1087 |
|---|---|
| Flight time | 1h 20m |
| Altitude | 34000 |
| Route | SIREM UM544 VUROB |
| Aircraft | A320/M-SDE3FGHIRWY/LB1 |
Departure
| Time | 2026-04-20 00:54 |
|---|---|
| Airport | Presidente Juscelino Kubitschek International Airport (SBBR) |
Arrival
| Time | 2026-04-20 02:14 |
|---|---|
| Airport | Campo Grande Airport (SBCG) |
| Time | Latitude | Longitude | Altitude | Speed | Heading |
|---|---|---|---|---|---|
| 2026-04-20 00:38 | -15.86856 | -47.91872 | 3458 ft | 0 kts | 356° |
| 2026-04-20 00:46 | -15.86858 | -47.91872 | 3457 ft | 2 kts | 356° |
| 2026-04-20 00:47 | -15.86875 | -47.91871 | 3457 ft | 2 kts | 358° |
| 2026-04-20 00:47 | -15.86891 | -47.91870 | 3458 ft | 2 kts | 3° |
| 2026-04-20 00:47 | -15.86907 | -47.91872 | 3457 ft | 2 kts | 28° |
| 2026-04-20 00:47 | -15.86917 | -47.91884 | 3458 ft | 1 kts | 84° |
| 2026-04-20 00:48 | -15.86917 | -47.91887 | 3458 ft | 0 kts | 85° |
| 2026-04-20 00:49 | -15.86915 | -47.91869 | 3457 ft | 9 kts | 84° |
| 2026-04-20 00:49 | -15.86907 | -47.91758 | 3457 ft | 19 kts | 87° |
| 2026-04-20 00:49 | -15.86900 | -47.91633 | 3457 ft | 15 kts | 84° |
| 2026-04-20 00:49 | -15.86819 | -47.91604 | 3457 ft | 16 kts | 353° |
| 2026-04-20 00:50 | -15.86682 | -47.91614 | 3458 ft | 24 kts | 357° |
| 2026-04-20 00:50 | -15.86514 | -47.91628 | 3466 ft | 19 kts | 353° |
| 2026-04-20 00:50 | -15.86489 | -47.91743 | 3469 ft | 22 kts | 265° |
| 2026-04-20 00:50 | -15.86499 | -47.91921 | 3469 ft | 28 kts | 266° |
| 2026-04-20 00:51 | -15.86513 | -47.92118 | 3458 ft | 22 kts | 265° |
| 2026-04-20 00:51 | -15.86523 | -47.92302 | 3457 ft | 29 kts | 267° |
| 2026-04-20 00:51 | -15.86536 | -47.92518 | 3457 ft | 32 kts | 265° |
| 2026-04-20 00:51 | -15.86548 | -47.92692 | 3470 ft | 21 kts | 263° |
| 2026-04-20 00:52 | -15.86506 | -47.92762 | 3470 ft | 8 kts | 355° |
| 2026-04-20 00:52 | -15.86504 | -47.92762 | 3470 ft | 0 kts | 356° |
| 2026-04-20 00:52 | -15.86500 | -47.92763 | 3470 ft | 4 kts | 356° |
| 2026-04-20 00:52 | -15.86438 | -47.92766 | 3469 ft | 13 kts | 4° |
| 2026-04-20 00:53 | -15.86355 | -47.92695 | 3463 ft | 11 kts | 77° |
| 2026-04-20 00:53 | -15.86353 | -47.92685 | 3463 ft | 0 kts | 83° |
| 2026-04-20 00:53 | -15.86343 | -47.92560 | 3465 ft | 52 kts | 86° |
| 2026-04-20 00:53 | -15.86305 | -47.91940 | 3468 ft | 118 kts | 86° |
| 2026-04-20 00:54 | -15.86241 | -47.90894 | 3480 ft | 169 kts | 87° |
| 2026-04-20 00:54 | -15.86178 | -47.89682 | 4053 ft | 169 kts | 86° |
| 2026-04-20 00:54 | -15.86255 | -47.88442 | 4589 ft | 178 kts | 112° |
| 2026-04-20 00:54 | -15.87107 | -47.87539 | 5286 ft | 182 kts | 158° |
| 2026-04-20 00:55 | -15.88453 | -47.87291 | 5465 ft | 211 kts | 172° |
| 2026-04-20 00:55 | -15.90002 | -47.87126 | 5586 ft | 238 kts | 173° |
| 2026-04-20 00:55 | -15.91747 | -47.87004 | 5833 ft | 263 kts | 176° |
| 2026-04-20 00:55 | -15.93638 | -47.86950 | 6284 ft | 277 kts | 173° |
| 2026-04-20 00:56 | -15.95540 | -47.86667 | 7055 ft | 277 kts | 168° |
| 2026-04-20 00:56 | -15.97441 | -47.86258 | 7856 ft | 280 kts | 167° |
| 2026-04-20 00:56 | -15.99351 | -47.85833 | 8642 ft | 282 kts | 167° |
| 2026-04-20 00:56 | -16.01292 | -47.85426 | 9367 ft | 287 kts | 168° |
| 2026-04-20 00:57 | -16.03270 | -47.85057 | 10067 ft | 292 kts | 172° |
| 2026-04-20 00:57 | -16.05286 | -47.85283 | 10660 ft | 298 kts | 202° |
| 2026-04-20 00:57 | -16.06936 | -47.86584 | 11277 ft | 304 kts | 233° |
| 2026-04-20 00:57 | -16.07802 | -47.88614 | 11727 ft | 319 kts | 256° |
| 2026-04-20 00:58 | -16.08100 | -47.90945 | 11860 ft | 342 kts | 266° |
| 2026-04-20 00:58 | -16.08114 | -47.93477 | 12199 ft | 355 kts | 271° |
| 2026-04-20 00:58 | -16.08057 | -47.96061 | 12790 ft | 360 kts | 268° |
| 2026-04-20 00:58 | -16.08332 | -47.98649 | 13425 ft | 361 kts | 255° |
| 2026-04-20 00:59 | -16.09237 | -48.01076 | 14045 ft | 362 kts | 241° |
| 2026-04-20 00:59 | -16.10444 | -48.03379 | 14602 ft | 364 kts | 240° |
| 2026-04-20 00:59 | -16.11689 | -48.05681 | 15135 ft | 366 kts | 240° |
| 2026-04-20 00:59 | -16.12949 | -48.07995 | 15665 ft | 369 kts | 240° |
| 2026-04-20 01:00 | -16.14211 | -48.10332 | 16196 ft | 372 kts | 240° |
| 2026-04-20 01:00 | -16.15470 | -48.12690 | 16719 ft | 374 kts | 240° |
| 2026-04-20 01:00 | -16.16728 | -48.15071 | 17250 ft | 377 kts | 240° |
| 2026-04-20 01:00 | -16.17988 | -48.17473 | 17786 ft | 379 kts | 240° |
| 2026-04-20 01:01 | -16.19256 | -48.19894 | 18310 ft | 382 kts | 240° |
| 2026-04-20 01:01 | -16.20529 | -48.22328 | 18766 ft | 384 kts | 240° |
| 2026-04-20 01:01 | -16.21813 | -48.24776 | 19216 ft | 387 kts | 240° |
| 2026-04-20 01:01 | -16.23107 | -48.27241 | 19679 ft | 389 kts | 240° |
| 2026-04-20 01:02 | -16.24538 | -48.29628 | 20145 ft | 390 kts | 231° |
| 2026-04-20 01:02 | -16.26321 | -48.31760 | 20597 ft | 391 kts | 226° |
| 2026-04-20 01:02 | -16.27540 | -48.33149 | 20916 ft | 393 kts | 226° |
| 2026-04-20 01:02 | -16.29388 | -48.35258 | 21382 ft | 395 kts | 226° |
| 2026-04-20 01:03 | -16.31244 | -48.37376 | 21850 ft | 397 kts | 226° |
| 2026-04-20 01:03 | -16.33110 | -48.39508 | 22298 ft | 399 kts | 226° |
| 2026-04-20 01:03 | -16.34982 | -48.41649 | 22743 ft | 401 kts | 226° |
| 2026-04-20 01:03 | -16.36865 | -48.43805 | 23177 ft | 403 kts | 226° |
| 2026-04-20 01:04 | -16.38759 | -48.45975 | 23590 ft | 406 kts | 226° |
| 2026-04-20 01:04 | -16.40662 | -48.48155 | 23944 ft | 408 kts | 227° |
| 2026-04-20 01:04 | -16.42572 | -48.50345 | 24311 ft | 409 kts | 227° |
| 2026-04-20 01:04 | -16.44474 | -48.52546 | 24683 ft | 409 kts | 229° |
| 2026-04-20 01:05 | -16.46126 | -48.54967 | 25039 ft | 411 kts | 235° |
| 2026-04-20 01:05 | -16.47712 | -48.57451 | 25404 ft | 411 kts | 235° |
| 2026-04-20 01:05 | -16.49297 | -48.59936 | 25755 ft | 412 kts | 236° |
| 2026-04-20 01:05 | -16.50879 | -48.62421 | 26102 ft | 412 kts | 236° |
| 2026-04-20 01:06 | -16.52465 | -48.64916 | 26445 ft | 413 kts | 236° |
| 2026-04-20 01:06 | -16.54060 | -48.67413 | 26783 ft | 414 kts | 235° |
| 2026-04-20 01:06 | -16.55690 | -48.69884 | 27098 ft | 415 kts | 234° |
| 2026-04-20 01:06 | -16.57354 | -48.72346 | 27418 ft | 415 kts | 234° |
| 2026-04-20 01:07 | -16.59032 | -48.74805 | 27729 ft | 416 kts | 234° |
| 2026-04-20 01:07 | -16.60692 | -48.77236 | 28027 ft | 417 kts | 234° |
| 2026-04-20 01:07 | -16.62369 | -48.79703 | 28337 ft | 417 kts | 234° |
| 2026-04-20 01:07 | -16.64043 | -48.82178 | 28629 ft | 418 kts | 235° |
| 2026-04-20 01:08 | -16.65714 | -48.84663 | 28916 ft | 419 kts | 235° |
| 2026-04-20 01:08 | -16.67382 | -48.87153 | 29202 ft | 420 kts | 235° |
| 2026-04-20 01:08 | -16.69055 | -48.89654 | 29474 ft | 420 kts | 235° |
| 2026-04-20 01:08 | -16.70732 | -48.92156 | 29743 ft | 421 kts | 235° |
| 2026-04-20 01:09 | -16.72411 | -48.94658 | 30002 ft | 422 kts | 235° |
| 2026-04-20 01:09 | -16.74097 | -48.97170 | 30215 ft | 422 kts | 235° |
| 2026-04-20 01:09 | -16.75778 | -48.99680 | 30414 ft | 423 kts | 235° |
| 2026-04-20 01:09 | -16.77468 | -49.02203 | 30603 ft | 424 kts | 235° |
| 2026-04-20 01:10 | -16.79159 | -49.04727 | 30790 ft | 425 kts | 235° |
| 2026-04-20 01:10 | -16.82539 | -49.09772 | 31282 ft | 423 kts | 235° |
| 2026-04-20 01:10 | -16.84222 | -49.12288 | 31543 ft | 422 kts | 235° |
| 2026-04-20 01:11 | -16.85899 | -49.14793 | 31827 ft | 420 kts | 235° |
| 2026-04-20 01:11 | -16.87572 | -49.17293 | 32078 ft | 419 kts | 235° |
| 2026-04-20 01:11 | -16.89240 | -49.19789 | 32357 ft | 418 kts | 235° |
| 2026-04-20 01:11 | -16.90898 | -49.22272 | 32636 ft | 416 kts | 235° |
| 2026-04-20 01:12 | -16.91676 | -49.23439 | 32771 ft | 415 kts | 235° |
| 2026-04-20 01:12 | -16.93307 | -49.25878 | 33068 ft | 414 kts | 235° |
| 2026-04-20 01:12 | -16.94954 | -49.28339 | 33344 ft | 413 kts | 235° |
| 2026-04-20 01:13 | -16.96593 | -49.30795 | 33626 ft | 412 kts | 235° |
| 2026-04-20 01:13 | -16.98229 | -49.33250 | 33817 ft | 413 kts | 236° |
| 2026-04-20 01:13 | -16.99868 | -49.35712 | 33971 ft | 414 kts | 236° |
| 2026-04-20 01:13 | -17.01523 | -49.38198 | 34006 ft | 418 kts | 236° |
| 2026-04-20 01:14 | -17.04865 | -49.43214 | 34002 ft | 422 kts | 235° |
| 2026-04-20 01:14 | -17.08222 | -49.48251 | 33997 ft | 423 kts | 236° |
| 2026-04-20 01:15 | -17.11583 | -49.53297 | 33999 ft | 423 kts | 235° |
| 2026-04-20 01:15 | -17.14941 | -49.58344 | 33999 ft | 423 kts | 235° |
| 2026-04-20 01:16 | -17.18294 | -49.63397 | 34002 ft | 423 kts | 236° |
| 2026-04-20 01:16 | -17.21647 | -49.68456 | 34005 ft | 423 kts | 236° |
| 2026-04-20 01:17 | -17.25004 | -49.73519 | 34012 ft | 423 kts | 236° |
| 2026-04-20 01:17 | -17.28366 | -49.78578 | 34009 ft | 424 kts | 236° |
| 2026-04-20 01:18 | -17.31724 | -49.83647 | 34017 ft | 424 kts | 236° |
| 2026-04-20 01:18 | -17.35056 | -49.88689 | 34007 ft | 424 kts | 236° |
| 2026-04-20 01:19 | -17.38410 | -49.93758 | 34004 ft | 424 kts | 236° |
| 2026-04-20 01:19 | -17.41774 | -49.98840 | 34004 ft | 424 kts | 236° |
| 2026-04-20 01:20 | -17.45125 | -50.03923 | 34006 ft | 424 kts | 236° |
| 2026-04-20 01:20 | -17.48482 | -50.09010 | 34003 ft | 424 kts | 236° |
| 2026-04-20 01:21 | -17.51849 | -50.14100 | 33996 ft | 424 kts | 236° |
| 2026-04-20 01:21 | -17.55184 | -50.19157 | 34007 ft | 424 kts | 236° |
| 2026-04-20 01:22 | -17.58532 | -50.24258 | 34000 ft | 425 kts | 236° |
| 2026-04-20 01:22 | -17.61880 | -50.29357 | 34003 ft | 425 kts | 236° |
| 2026-04-20 01:23 | -17.65239 | -50.34457 | 34018 ft | 425 kts | 236° |
| 2026-04-20 01:23 | -17.68595 | -50.39561 | 34021 ft | 425 kts | 236° |
| 2026-04-20 01:24 | -17.71947 | -50.44659 | 34010 ft | 424 kts | 236° |
| 2026-04-20 01:24 | -17.75292 | -50.49760 | 34003 ft | 424 kts | 236° |
| 2026-04-20 01:25 | -17.78628 | -50.54863 | 34003 ft | 424 kts | 236° |
| 2026-04-20 01:25 | -17.81964 | -50.59964 | 34012 ft | 424 kts | 236° |
| 2026-04-20 01:26 | -17.85306 | -50.65062 | 34010 ft | 424 kts | 236° |
| 2026-04-20 01:26 | -17.88624 | -50.70125 | 34004 ft | 424 kts | 236° |
| 2026-04-20 01:27 | -17.91960 | -50.75229 | 34021 ft | 424 kts | 236° |
| 2026-04-20 01:27 | -17.95295 | -50.80343 | 34003 ft | 424 kts | 236° |
| 2026-04-20 01:28 | -17.98624 | -50.85452 | 34018 ft | 424 kts | 236° |
| 2026-04-20 01:28 | -18.01959 | -50.90569 | 34007 ft | 424 kts | 236° |
| 2026-04-20 01:29 | -18.05290 | -50.95678 | 34010 ft | 424 kts | 236° |
| 2026-04-20 01:29 | -18.08623 | -51.00795 | 34027 ft | 424 kts | 236° |
| 2026-04-20 01:30 | -18.11934 | -51.05884 | 34017 ft | 424 kts | 236° |
| 2026-04-20 01:30 | -18.15261 | -51.11003 | 34013 ft | 423 kts | 236° |
| 2026-04-20 01:31 | -18.18578 | -51.16116 | 34012 ft | 423 kts | 236° |
| 2026-04-20 01:31 | -18.21898 | -51.21236 | 34012 ft | 423 kts | 236° |
| 2026-04-20 01:32 | -18.25216 | -51.26349 | 34012 ft | 423 kts | 236° |
| 2026-04-20 01:32 | -18.28539 | -51.31468 | 34010 ft | 423 kts | 236° |
| 2026-04-20 01:33 | -18.31849 | -51.36589 | 34010 ft | 423 kts | 236° |
| 2026-04-20 01:33 | -18.35157 | -51.41719 | 34007 ft | 423 kts | 236° |
| 2026-04-20 01:34 | -18.38463 | -51.46841 | 34009 ft | 423 kts | 236° |
| 2026-04-20 01:34 | -18.41763 | -51.51931 | 34008 ft | 423 kts | 236° |
| 2026-04-20 01:35 | -18.45078 | -51.57050 | 34008 ft | 423 kts | 236° |
| 2026-04-20 01:35 | -18.48380 | -51.62176 | 34004 ft | 423 kts | 236° |
| 2026-04-20 01:36 | -18.51672 | -51.67312 | 34011 ft | 423 kts | 236° |
| 2026-04-20 01:36 | -18.54969 | -51.72442 | 34011 ft | 423 kts | 236° |
| 2026-04-20 01:37 | -18.58272 | -51.77568 | 34006 ft | 423 kts | 236° |
| 2026-04-20 01:37 | -18.61571 | -51.82694 | 34006 ft | 422 kts | 236° |
| 2026-04-20 01:38 | -18.64870 | -51.87822 | 34007 ft | 422 kts | 236° |
| 2026-04-20 01:38 | -18.68159 | -51.92948 | 34004 ft | 422 kts | 236° |
| 2026-04-20 01:39 | -18.71444 | -51.98083 | 34006 ft | 422 kts | 236° |
| 2026-04-20 01:39 | -18.74729 | -52.03210 | 34005 ft | 422 kts | 236° |
| 2026-04-20 01:40 | -18.78021 | -52.08341 | 34003 ft | 422 kts | 236° |
| 2026-04-20 01:40 | -18.81302 | -52.13472 | 34004 ft | 422 kts | 236° |
| 2026-04-20 01:41 | -18.84575 | -52.18607 | 34003 ft | 422 kts | 236° |
| 2026-04-20 01:41 | -18.87826 | -52.23706 | 34003 ft | 422 kts | 236° |
| 2026-04-20 01:42 | -18.91110 | -52.28850 | 33997 ft | 421 kts | 236° |
| 2026-04-20 01:42 | -18.94379 | -52.33983 | 34007 ft | 421 kts | 236° |
| 2026-04-20 01:43 | -18.97658 | -52.39114 | 34002 ft | 421 kts | 236° |
| 2026-04-20 01:43 | -19.00927 | -52.44253 | 34000 ft | 421 kts | 236° |
| 2026-04-20 01:44 | -19.04190 | -52.49394 | 34001 ft | 421 kts | 236° |
| 2026-04-20 01:44 | -19.07452 | -52.54529 | 33997 ft | 420 kts | 236° |
| 2026-04-20 01:45 | -19.10706 | -52.59660 | 33996 ft | 420 kts | 236° |
| 2026-04-20 01:45 | -19.13967 | -52.64792 | 33996 ft | 420 kts | 236° |
| 2026-04-20 01:46 | -19.17237 | -52.69913 | 33997 ft | 420 kts | 236° |
| 2026-04-20 01:46 | -19.20503 | -52.75042 | 33994 ft | 420 kts | 236° |
| 2026-04-20 01:47 | -19.23749 | -52.80150 | 33994 ft | 420 kts | 237° |
| 2026-04-20 01:47 | -19.27004 | -52.85279 | 33994 ft | 420 kts | 237° |
| 2026-04-20 01:48 | -19.30263 | -52.90417 | 33998 ft | 420 kts | 236° |
| 2026-04-20 01:48 | -19.33513 | -52.95552 | 33998 ft | 420 kts | 237° |
| 2026-04-20 01:49 | -19.36760 | -53.00700 | 34004 ft | 420 kts | 237° |
| 2026-04-20 01:49 | -19.40006 | -53.05842 | 33999 ft | 419 kts | 237° |
| 2026-04-20 01:50 | -19.43256 | -53.10974 | 34000 ft | 419 kts | 237° |
| 2026-04-20 01:50 | -19.46487 | -53.16074 | 33999 ft | 419 kts | 237° |
| 2026-04-20 01:51 | -19.49729 | -53.21209 | 33998 ft | 419 kts | 237° |
| 2026-04-20 01:51 | -19.52438 | -53.25510 | 33997 ft | 419 kts | 237° |
| 2026-04-20 01:52 | -19.55649 | -53.30616 | 33993 ft | 419 kts | 237° |
| 2026-04-20 01:52 | -19.58887 | -53.35754 | 33992 ft | 419 kts | 237° |
| 2026-04-20 01:53 | -19.62122 | -53.40893 | 33991 ft | 419 kts | 237° |
| 2026-04-20 01:53 | -19.65349 | -53.46037 | 33991 ft | 419 kts | 237° |
| 2026-04-20 01:54 | -19.68580 | -53.51184 | 33994 ft | 419 kts | 237° |
| 2026-04-20 01:54 | -19.71811 | -53.56327 | 33997 ft | 419 kts | 237° |
| 2026-04-20 01:55 | -19.75095 | -53.61414 | 33288 ft | 418 kts | 235° |
| 2026-04-20 01:55 | -19.76804 | -53.63909 | 32447 ft | 418 kts | 234° |
| 2026-04-20 01:55 | -19.78527 | -53.66382 | 31704 ft | 416 kts | 234° |
| 2026-04-20 01:56 | -19.80252 | -53.68849 | 31017 ft | 415 kts | 234° |
| 2026-04-20 01:56 | -19.81964 | -53.71313 | 30346 ft | 414 kts | 234° |
| 2026-04-20 01:56 | -19.83665 | -53.73779 | 29636 ft | 413 kts | 234° |
| 2026-04-20 01:56 | -19.85354 | -53.76244 | 28884 ft | 412 kts | 234° |
| 2026-04-20 01:57 | -19.87027 | -53.78695 | 28324 ft | 407 kts | 234° |
| 2026-04-20 01:57 | -19.88656 | -53.81086 | 27845 ft | 402 kts | 234° |
| 2026-04-20 01:57 | -19.90305 | -53.83506 | 27357 ft | 397 kts | 234° |
| 2026-04-20 01:57 | -19.91894 | -53.85840 | 26898 ft | 392 kts | 234° |
| 2026-04-20 01:58 | -19.93484 | -53.88177 | 26443 ft | 388 kts | 234° |
| 2026-04-20 01:58 | -19.95082 | -53.90523 | 25988 ft | 385 kts | 234° |
| 2026-04-20 01:58 | -19.96624 | -53.92782 | 25552 ft | 382 kts | 234° |
| 2026-04-20 01:58 | -19.98179 | -53.95064 | 25120 ft | 379 kts | 234° |
| 2026-04-20 01:59 | -19.99719 | -53.97325 | 24675 ft | 377 kts | 234° |
| 2026-04-20 01:59 | -20.01254 | -53.99579 | 24240 ft | 375 kts | 234° |
| 2026-04-20 01:59 | -20.02778 | -54.01824 | 23790 ft | 373 kts | 234° |
| 2026-04-20 01:59 | -20.04293 | -54.04060 | 23303 ft | 372 kts | 234° |
| 2026-04-20 02:00 | -20.05803 | -54.06286 | 22832 ft | 369 kts | 234° |
| 2026-04-20 02:00 | -20.07305 | -54.08496 | 22384 ft | 367 kts | 233° |
| 2026-04-20 02:00 | -20.08935 | -54.10572 | 21922 ft | 365 kts | 227° |
| 2026-04-20 02:00 | -20.10660 | -54.12548 | 21448 ft | 364 kts | 226° |
| 2026-04-20 02:01 | -20.12356 | -54.14486 | 20983 ft | 363 kts | 226° |
| 2026-04-20 02:01 | -20.14101 | -54.16475 | 20509 ft | 362 kts | 226° |
| 2026-04-20 02:01 | -20.15817 | -54.18432 | 20037 ft | 362 kts | 226° |
| 2026-04-20 02:01 | -20.17532 | -54.20395 | 19562 ft | 362 kts | 226° |
| 2026-04-20 02:02 | -20.19223 | -54.22334 | 19110 ft | 362 kts | 226° |
| 2026-04-20 02:02 | -20.20938 | -54.24304 | 18636 ft | 363 kts | 226° |
| 2026-04-20 02:02 | -20.22657 | -54.26276 | 18156 ft | 364 kts | 226° |
| 2026-04-20 02:02 | -20.24376 | -54.28250 | 17657 ft | 363 kts | 226° |
| 2026-04-20 02:03 | -20.26090 | -54.30216 | 17207 ft | 361 kts | 226° |
| 2026-04-20 02:03 | -20.27797 | -54.32176 | 16763 ft | 360 kts | 226° |
| 2026-04-20 02:03 | -20.29493 | -54.34126 | 16320 ft | 359 kts | 226° |
| 2026-04-20 02:03 | -20.31188 | -54.36073 | 15883 ft | 358 kts | 226° |
| 2026-04-20 02:04 | -20.32881 | -54.38017 | 15441 ft | 357 kts | 226° |
| 2026-04-20 02:04 | -20.34566 | -54.39950 | 15011 ft | 356 kts | 226° |
| 2026-04-20 02:04 | -20.36246 | -54.41882 | 14578 ft | 355 kts | 225° |
| 2026-04-20 02:04 | -20.37901 | -54.43784 | 14151 ft | 354 kts | 226° |
| 2026-04-20 02:05 | -20.39573 | -54.45707 | 13741 ft | 353 kts | 226° |
| 2026-04-20 02:05 | -20.41308 | -54.47556 | 13277 ft | 351 kts | 220° |
| 2026-04-20 02:05 | -20.43116 | -54.49290 | 12829 ft | 348 kts | 220° |
| 2026-04-20 02:05 | -20.44909 | -54.51008 | 12408 ft | 346 kts | 220° |
| 2026-04-20 02:06 | -20.46697 | -54.52723 | 11968 ft | 344 kts | 221° |
| 2026-04-20 02:06 | -20.48470 | -54.54427 | 11541 ft | 341 kts | 221° |
| 2026-04-20 02:06 | -20.50228 | -54.56119 | 11114 ft | 339 kts | 221° |
| 2026-04-20 02:06 | -20.51972 | -54.57800 | 10679 ft | 337 kts | 221° |
| 2026-04-20 02:07 | -20.53679 | -54.59447 | 10245 ft | 324 kts | 221° |
| 2026-04-20 02:07 | -20.55296 | -54.61010 | 9990 ft | 305 kts | 222° |
| 2026-04-20 02:07 | -20.56845 | -54.62509 | 9462 ft | 297 kts | 222° |
| 2026-04-20 02:07 | -20.58366 | -54.63978 | 9203 ft | 295 kts | 222° |
| 2026-04-20 02:08 | -20.59877 | -54.65432 | 8438 ft | 298 kts | 222° |
| 2026-04-20 02:08 | -20.61411 | -54.66912 | 7710 ft | 297 kts | 223° |
| 2026-04-20 02:08 | -20.62948 | -54.68398 | 6983 ft | 297 kts | 223° |
| 2026-04-20 02:08 | -20.64439 | -54.69920 | 6247 ft | 295 kts | 233° |
| 2026-04-20 02:09 | -20.65285 | -54.71867 | 5617 ft | 287 kts | 264° |
| 2026-04-20 02:09 | -20.65134 | -54.73873 | 5501 ft | 259 kts | 291° |
| 2026-04-20 02:09 | -20.64291 | -54.75444 | 5459 ft | 235 kts | 314° |
| 2026-04-20 02:09 | -20.63220 | -54.76705 | 5405 ft | 223 kts | 315° |
| 2026-04-20 02:10 | -20.62147 | -54.77824 | 5325 ft | 209 kts | 328° |
| 2026-04-20 02:10 | -20.60875 | -54.78461 | 5072 ft | 200 kts | 347° |
| 2026-04-20 02:10 | -20.59482 | -54.78548 | 4655 ft | 201 kts | 9° |
| 2026-04-20 02:10 | -20.58186 | -54.78074 | 4397 ft | 196 kts | 30° |
| 2026-04-20 02:11 | -20.57130 | -54.77182 | 4158 ft | 192 kts | 41° |
| 2026-04-20 02:11 | -20.56143 | -54.76226 | 3910 ft | 189 kts | 41° |
| 2026-04-20 02:11 | -20.55197 | -54.75311 | 3673 ft | 177 kts | 41° |
| 2026-04-20 02:11 | -20.54320 | -54.74463 | 3473 ft | 166 kts | 41° |
| 2026-04-20 02:12 | -20.53496 | -54.73667 | 3295 ft | 153 kts | 41° |
| 2026-04-20 02:12 | -20.52716 | -54.72915 | 3094 ft | 149 kts | 42° |
| 2026-04-20 02:12 | -20.51958 | -54.72183 | 2900 ft | 146 kts | 41° |
| 2026-04-20 02:12 | -20.51212 | -54.71463 | 2733 ft | 143 kts | 41° |
| 2026-04-20 02:13 | -20.50479 | -54.70755 | 2550 ft | 142 kts | 41° |
| 2026-04-20 02:13 | -20.49755 | -54.70044 | 2377 ft | 141 kts | 40° |
| 2026-04-20 02:13 | -20.49019 | -54.69350 | 2175 ft | 142 kts | 40° |
| 2026-04-20 02:13 | -20.48283 | -54.68639 | 1995 ft | 142 kts | 41° |
| 2026-04-20 02:14 | -20.47568 | -54.67941 | 1843 ft | 135 kts | 41° |
| 2026-04-20 02:14 | -20.46968 | -54.67367 | 1838 ft | 95 kts | 43° |
| 2026-04-20 02:14 | -20.46574 | -54.66987 | 1839 ft | 52 kts | 42° |
| 2026-04-20 02:14 | -20.46351 | -54.66768 | 1837 ft | 38 kts | 44° |
| 2026-04-20 02:15 | -20.46208 | -54.66635 | 1837 ft | 16 kts | 41° |
| 2026-04-20 02:15 | -20.46108 | -54.66610 | 1838 ft | 16 kts | 342° |
| 2026-04-20 02:15 | -20.45997 | -54.66655 | 1837 ft | 18 kts | 339° |
| 2026-04-20 02:15 | -20.45876 | -54.66705 | 1837 ft | 19 kts | 339° |
| 2026-04-20 02:16 | -20.45831 | -54.66781 | 1837 ft | 6 kts | 265° |
| 2026-04-20 02:16 | -20.45828 | -54.66804 | 1837 ft | 2 kts | 291° |
| 2026-04-20 02:16 | -20.45809 | -54.66816 | 1837 ft | 6 kts | 343° |
| 2026-04-20 02:16 | -20.45786 | -54.66820 | 1837 ft | 1 kts | 352° |
| 2026-04-20 02:17 | -20.45777 | -54.66821 | 1837 ft | 0 kts | 353° |